Time;durP1;ratioP1;P1;durP2;ratioP2;P2;SDS_P1;SDS_P2;PMS_P1;PMS_P2;Temp;Humidity;BMP_temperature;BMP_pressure;BME280_temperature;BME280_humidity;BME280_pressure;Samples;Min_cycle;Max_cycle;Signal;HPM_P1;HPM_P2
2022/09/16 00:00:42;;;;;;;5.70;1.00;;;;;;;12.19;90.09;99771.63;5044208;28;20056;-64
2022/09/16 00:03:10;;;;;;;3.88;1.13;;;;;;;12.14;90.17;99772.00;5043491;28;20417;-64
2022/09/16 00:05:41;;;;;;;2.75;0.82;;;;;;;12.18;88.95;99771.78;5051148;28;20064;-63
2022/09/16 00:08:09;;;;;;;2.13;0.98;;;;;;;12.05;89.75;99764.81;5047013;28;20484;-65
2022/09/16 00:10:36;;;;;;;8.10;1.05;;;;;;;12.04;89.87;99768.41;5032220;28;20061;-64
2022/09/16 00:13:03;;;;;;;6.90;1.83;;;;;;;12.00;89.62;99771.41;5042143;28;20055;-63
2022/09/16 00:15:30;;;;;;;4.18;1.02;;;;;;;12.00;88.78;99772.25;5039885;28;20358;-64
2022/09/16 00:17:58;;;;;;;4.03;0.88;;;;;;;11.97;88.86;99766.38;5051378;28;20075;-65
2022/09/16 00:20:25;;;;;;;3.55;1.23;;;;;;;12.05;88.25;99766.63;5050062;28;20525;-64
2022/09/16 00:22:56;;;;;;;7.20;1.63;;;;;;;12.00;87.94;99766.97;5045488;28;20459;-65
2022/09/16 00:25:23;;;;;;;6.55;1.10;;;;;;;11.88;88.69;99768.75;5051751;28;20052;-63
2022/09/16 00:27:50;;;;;;;5.43;1.05;;;;;;;11.86;88.74;99775.13;5050299;28;20052;-60
2022/09/16 00:30:18;;;;;;;5.00;1.52;;;;;;;11.84;88.45;99766.47;5046006;28;20053;-63
2022/09/16 00:32:45;;;;;;;4.95;1.33;;;;;;;11.79;89.15;99763.34;5042432;28;20052;-64
2022/09/16 00:35:12;;;;;;;5.35;0.80;;;;;;;11.85;88.32;99768.19;5045106;28;20061;-64
2022/09/16 00:37:39;;;;;;;5.00;1.00;;;;;;;11.86;88.09;99756.66;5047687;28;20102;-63
2022/09/16 00:40:06;;;;;;;3.25;1.00;;;;;;;11.82;88.45;99766.63;5048896;28;20070;-62
2022/09/16 00:42:40;;;;;;;2.13;1.00;;;;;;;11.78;88.95;99774.84;5043598;28;20051;-63
2022/09/16 00:45:30;;;;;;;6.45;1.08;;;;;;;11.93;88.15;99773.69;5030700;28;20060;-64
2022/09/16 00:48:03;;;;;;;2.17;0.75;;;;;;;11.86;88.36;99773.34;5038867;28;20148;-64
2022/09/16 00:50:37;;;;;;;4.93;1.10;;;;;;;11.76;88.82;99771.50;5048141;28;20133;-62
2022/09/16 00:53:06;;;;;;;6.25;1.25;;;;;;;11.70;89.29;99777.22;5022385;28;20053;-63
2022/09/16 00:55:35;;;;;;;5.28;1.02;;;;;;;11.71;89.41;99777.13;5029715;28;20052;-64
2022/09/16 00:58:13;;;;;;;3.75;1.13;;;;;;;11.66;89.46;99776.63;5035422;28;20044;-61
2022/09/16 01:00:40;;;;;;;3.00;0.80;;;;;;;11.62;89.74;99781.31;5024622;28;20465;-63
2022/09/16 01:03:07;;;;;;;1.88;0.80;;;;;;;11.68;89.49;99773.88;5045260;28;20059;-65
2022/09/16 01:05:35;;;;;;;4.22;0.80;;;;;;;11.63;90.32;99768.97;5045576;28;20060;-62
2022/09/16 01:08:03;;;;;;;4.50;1.20;;;;;;;11.55;91.10;99774.81;5048653;28;20056;-63
2022/09/16 01:10:30;;;;;;;3.35;1.10;;;;;;;11.53;91.09;99775.91;5050263;28;20498;-62
2022/09/16 01:13:03;;;;;;;2.72;1.00;;;;;;;11.48;91.69;99778.03;5042888;28;20052;-64
2022/09/16 01:15:56;;;;;;;6.78;1.40;;;;;;;11.44;92.11;99780.09;5021397;28;20050;-64
2022/09/16 01:18:52;;;;;;;2.00;1.15;;;;;;;11.51;91.79;99775.19;5024921;28;20060;-63
2022/09/16 01:21:32;;;;;;;9.20;1.65;;;;;;;11.45;92.78;99773.84;5012266;28;20045;-62
2022/09/16 01:24:33;;;;;;;4.70;1.70;;;;;;;11.45;92.92;99776.50;5036225;28;20041;-63
2022/09/16 01:27:00;;;;;;;6.20;1.15;;;;;;;11.40;93.45;99773.38;5011897;28;20080;-65
2022/09/16 01:29:57;;;;;;;4.35;1.35;;;;;;;11.44;92.82;99771.31;5032409;28;20282;-62
2022/09/16 01:32:48;;;;;;;4.43;1.25;;;;;;;11.36;94.18;99779.81;5024432;28;20084;-63
2022/09/16 01:36:11;;;;;;;5.50;0.93;;;;;;;11.27;95.03;99781.34;5048170;28;20513;-64
2022/09/16 01:38:42;;;;;;;9.75;2.08;;;;;;;11.27;95.38;99765.53;4991718;28;20056;-64
2022/09/16 01:41:28;;;;;;;3.33;1.10;;;;;;;11.26;95.53;99776.22;5032828;28;20053;-65
2022/09/16 01:44:05;;;;;;;10.73;1.73;;;;;;;11.23;96.53;99776.44;5027541;28;20048;-64
2022/09/16 01:46:44;;;;;;;1.98;1.27;;;;;;;11.36;95.83;99779.81;5036868;28;20056;-62
2022/09/16 01:49:42;;;;;;;8.52;1.52;;;;;;;11.25;96.38;99777.97;5033576;28;20052;-64
2022/09/16 01:52:36;;;;;;;6.03;1.05;;;;;;;11.39;96.02;99779.56;5046306;28;20045;-64
2022/09/16 01:55:10;;;;;;;5.32;1.35;;;;;;;11.34;96.09;99790.47;5031973;28;20053;-64
2022/09/16 01:57:56;;;;;;;4.90;2.07;;;;;;;11.48;96.15;99781.50;5031024;28;20396;-64
2022/09/16 02:00:23;;;;;;;7.00;2.55;;;;;;;11.33;96.29;99778.25;5040297;28;20064;-63
2022/09/16 02:02:55;;;;;;;5.72;1.42;;;;;;;11.21;98.00;99778.31;5028562;28;20083;-61
2022/09/16 02:05:27;;;;;;;4.05;1.58;;;;;;;11.22;98.19;99777.41;5032399;28;20171;-63
2022/09/16 02:08:00;;;;;;;3.13;1.33;;;;;;;11.13;99.34;99771.84;5034388;28;20052;-62
2022/09/16 02:10:30;;;;;;;4.75;1.20;;;;;;;11.16;99.03;99768.13;5034420;28;20056;-63
2022/09/16 02:13:03;;;;;;;4.28;1.38;;;;;;;11.12;99.41;99777.22;5033942;28;20496;-64
2022/09/16 02:15:32;;;;;;;6.38;2.05;;;;;;;11.11;99.94;99772.91;5027319;28;20053;-63
2022/09/16 02:18:14;;;;;;;7.38;1.83;;;;;;;11.05;100.00;99768.09;5028505;28;21639;-64
2022/09/16 02:20:44;;;;;;;6.38;1.80;;;;;;;11.05;100.00;99768.94;5033109;28;20052;-64
2022/09/16 02:23:19;;;;;;;4.95;1.27;;;;;;;11.05;100.00;99768.09;5044692;28;20039;-61
2022/09/16 02:25:47;;;;;;;6.25;1.58;;;;;;;11.09;100.00;99766.94;5058156;28;20056;-62
2022/09/16 02:28:35;;;;;;;5.30;1.63;;;;;;;11.07;100.00;99767.03;5037046;28;20634;-62
2022/09/16 02:31:07;;;;;;;7.25;1.40;;;;;;;11.01;100.00;99764.84;5029752;28;20057;-63
2022/09/16 02:33:47;;;;;;;5.00;1.30;;;;;;;10.98;100.00;99765.06;5027781;28;20044;-63
2022/09/16 02:36:19;;;;;;;5.43;1.50;;;;;;;10.94;100.00;99762.78;5039761;28;20156;-63
2022/09/16 02:38:50;;;;;;;5.65;1.50;;;;;;;10.95;100.00;99752.16;5048567;28;20061;-63
2022/09/16 02:41:17;;;;;;;4.72;1.48;;;;;;;11.01;100.00;99764.03;5050205;28;20141;-63
2022/09/16 02:43:44;;;;;;;7.00;1.50;;;;;;;11.01;100.00;99759.59;5047364;28;20052;-63
2022/09/16 02:46:25;;;;;;;7.15;2.22;;;;;;;11.03;100.00;99760.34;5049079;28;20497;-63
2022/09/16 02:49:17;;;;;;;11.93;2.13;;;;;;;10.90;100.00;99762.19;5031856;28;20049;-64
2022/09/16 02:52:12;;;;;;;8.82;2.15;;;;;;;10.97;100.00;99752.03;5041009;28;20053;-62
2022/09/16 02:54:39;;;;;;;4.82;1.85;;;;;;;10.90;100.00;99754.28;5054747;28;20413;-64
2022/09/16 02:57:06;;;;;;;9.00;1.60;;;;;;;10.89;100.00;99756.06;5031005;28;20393;-64
2022/09/16 02:59:33;;;;;;;11.32;1.83;;;;;;;10.80;100.00;99761.16;5054744;28;20239;-64
2022/09/16 03:02:00;;;;;;;6.80;1.65;;;;;;;10.86;100.00;99761.56;5024956;28;20068;-64
2022/09/16 03:04:28;;;;;;;8.75;2.00;;;;;;;10.83;100.00;99759.16;5034424;28;20546;-65
2022/09/16 03:06:55;;;;;;;6.50;1.70;;;;;;;10.79;100.00;99770.03;5027043;28;20052;-63
2022/09/16 03:09:23;;;;;;;5.72;1.48;;;;;;;10.81;100.00;99758.44;5051289;28;20095;-63
2022/09/16 03:12:15;;;;;;;5.53;1.92;;;;;;;10.86;100.00;99760.75;5050360;28;20296;-62
2022/09/16 03:15:23;;;;;;;3.58;1.70;;;;;;;10.78;100.00;99766.56;5041194;28;20414;-62
2022/09/16 03:18:05;;;;;;;4.57;1.60;;;;;;;10.82;100.00;99768.00;4939350;28;20066;-64
2022/09/16 03:20:59;;;;;;;10.07;2.05;;;;;;;10.77;100.00;99762.25;4973589;28;20060;-64
2022/09/16 03:24:02;;;;;;;6.88;1.90;;;;;;;10.82;100.00;99764.53;5010470;28;20072;-60
2022/09/16 03:26:34;;;;;;;11.23;2.28;;;;;;;10.84;100.00;99767.91;5042847;28;20054;-64
2022/09/16 03:29:11;;;;;;;8.15;2.05;;;;;;;10.82;100.00;99764.53;5042868;28;20036;-64
2022/09/16 03:31:50;;;;;;;6.78;2.08;;;;;;;10.77;100.00;99767.53;5034059;28;20286;-63
2022/09/16 03:34:34;;;;;;;11.13;2.42;;;;;;;10.88;100.00;99764.09;5049393;28;20045;-64
2022/09/16 03:37:05;;;;;;;7.38;1.80;;;;;;;10.82;100.00;99764.53;5026157;28;20045;-63
2022/09/16 03:39:32;;;;;;;7.07;1.95;;;;;;;10.78;100.00;99765.72;5029815;28;20075;-63
2022/09/16 03:42:04;;;;;;;11.35;2.20;;;;;;;10.72;100.00;99763.56;5049166;28;20060;-63
2022/09/16 03:44:36;;;;;;;7.28;2.13;;;;;;;10.67;100.00;99758.59;5031780;28;20061;-63
2022/09/16 03:47:05;;;;;;;8.10;2.33;;;;;;;10.70;100.00;99763.63;5048646;28;20242;-63
2022/09/16 03:49:32;;;;;;;10.13;2.00;;;;;;;10.74;100.00;99759.84;5036536;28;22399;-62
2022/09/16 03:52:00;;;;;;;6.97;2.15;;;;;;;10.82;100.00;99754.00;5038199;28;20049;-64
2022/09/16 03:54:27;;;;;;;7.47;2.30;;;;;;;10.79;100.00;99764.75;5047480;28;20045;-63
2022/09/16 03:56:54;;;;;;;7.18;2.10;;;;;;;10.74;100.00;99761.63;5036017;28;20501;-60
2022/09/16 03:59:21;;;;;;;12.40;2.55;;;;;;;10.69;100.00;99758.50;5050064;28;20052;-61
2022/09/16 04:01:48;;;;;;;7.10;2.13;;;;;;;10.82;100.00;99751.38;5032384;28;21047;-64
2022/09/16 04:04:15;;;;;;;6.78;2.40;;;;;;;10.75;100.00;99743.09;5046971;28;20053;-64
2022/09/16 04:06:43;;;;;;;5.10;2.05;;;;;;;10.78;100.00;99750.75;5040819;28;20520;-63
2022/09/16 04:09:11;;;;;;;6.68;2.83;;;;;;;10.73;100.00;99750.25;5043895;28;20056;-63
2022/09/16 04:11:39;;;;;;;7.53;2.60;;;;;;;10.73;100.00;99750.25;5045087;28;20551;-62
2022/09/16 04:14:06;;;;;;;11.77;2.80;;;;;;;10.68;100.00;99746.28;5052013;28;20041;-63
2022/09/16 04:16:33;;;;;;;11.07;3.17;;;;;;;10.69;100.00;99754.06;5035190;28;20044;-61
2022/09/16 04:19:00;;;;;;;6.30;2.17;;;;;;;10.78;100.00;99752.56;5053311;28;20057;-63
2022/09/16 04:21:28;;;;;;;6.35;2.20;;;;;;;10.84;100.00;99745.03;5039348;28;20334;-64
2022/09/16 04:23:55;;;;;;;7.47;2.40;;;;;;;10.81;100.00;99747.91;5043539;28;20038;-62
2022/09/16 04:26:22;;;;;;;6.55;2.70;;;;;;;10.76;100.00;99755.31;5035314;28;20064;-61
2022/09/16 04:28:52;;;;;;;7.00;2.72;;;;;;;10.78;100.00;99757.81;5048497;28;20072;-63
2022/09/16 04:31:19;;;;;;;8.85;2.55;;;;;;;10.74;100.00;99770.38;5054281;28;20045;-61
2022/09/16 04:33:46;;;;;;;6.97;2.72;;;;;;;10.76;100.00;99757.94;5046282;28;20068;-64
2022/09/16 04:36:16;;;;;;;8.38;2.83;;;;;;;10.78;100.00;99747.28;5046934;28;20528;-62
2022/09/16 04:38:44;;;;;;;5.85;2.65;;;;;;;10.68;100.00;99752.41;5027144;28;20053;-63
2022/09/16 04:41:17;;;;;;;9.38;2.80;;;;;;;10.67;100.00;99753.31;5039384;28;20053;-61
2022/09/16 04:43:45;;;;;;;4.57;2.60;;;;;;;10.71;100.00;99746.88;5047043;28;20044;-63
2022/09/16 04:46:12;;;;;;;9.23;2.92;;;;;;;10.60;100.00;99752.13;5042682;28;20425;-61
2022/09/16 04:48:40;;;;;;;6.65;2.50;;;;;;;10.71;100.00;99749.53;5033188;28;20071;-64
2022/09/16 04:51:11;;;;;;;8.10;2.25;;;;;;;10.69;100.00;99742.72;5049758;28;20620;-63
2022/09/16 04:53:38;;;;;;;9.25;2.85;;;;;;;10.62;100.00;99747.56;5043169;28;20057;-64
2022/09/16 04:56:06;;;;;;;9.15;3.03;;;;;;;10.66;100.00;99751.66;5050963;28;20128;-62
2022/09/16 04:58:34;;;;;;;6.30;2.28;;;;;;;10.63;100.00;99749.28;5020920;28;20402;-64
2022/09/16 05:01:12;;;;;;;6.82;2.47;;;;;;;10.56;100.00;99738.34;5041532;28;20057;-64
2022/09/16 05:03:40;;;;;;;5.95;2.33;;;;;;;10.56;100.00;99753.28;5043394;28;20057;-63
2022/09/16 05:06:11;;;;;;;7.80;2.55;;;;;;;10.64;100.00;99746.50;5046923;28;20053;-64
2022/09/16 05:08:38;;;;;;;4.18;1.70;;;;;;;10.59;100.00;99747.81;5043107;28;20718;-63
2022/09/16 05:11:13;;;;;;;11.50;2.50;;;;;;;10.57;100.00;99755.78;5044054;28;20505;-63
2022/09/16 05:13:41;;;;;;;8.43;2.13;;;;;;;10.73;100.00;99749.44;5048085;28;20380;-62
2022/09/16 05:16:13;;;;;;;8.23;1.90;;;;;;;10.74;100.00;99754.56;5045042;28;20064;-63
2022/09/16 05:18:41;;;;;;;8.77;2.65;;;;;;;10.63;100.00;99754.53;5042509;28;20076;-62
2022/09/16 05:21:11;;;;;;;7.22;2.20;;;;;;;10.57;100.00;99747.91;5036413;28;20544;-62
2022/09/16 05:23:39;;;;;;;6.82;2.15;;;;;;;10.55;100.00;99756.88;5044482;28;20060;-63
2022/09/16 05:26:23;;;;;;;6.35;1.75;;;;;;;10.67;100.00;99752.50;5046175;28;20346;-61
2022/09/16 05:28:51;;;;;;;10.02;2.22;;;;;;;10.59;100.00;99748.66;5027750;28;20058;-63
2022/09/16 05:31:29;;;;;;;7.80;2.03;;;;;;;10.60;100.00;99746.84;5048347;28;20067;-61
2022/09/16 05:34:11;;;;;;;10.40;2.20;;;;;;;10.60;100.00;99746.84;5040865;28;20793;-63
2022/09/16 05:36:38;;;;;;;6.18;1.80;;;;;;;10.65;100.00;99756.09;5026392;28;20052;-60
2022/09/16 05:39:05;;;;;;;4.43;1.88;;;;;;;10.60;100.00;99749.47;5038830;28;20040;-60
2022/09/16 05:41:58;;;;;;;11.38;2.28;;;;;;;10.65;100.00;99752.63;5043594;28;20485;-62
2022/09/16 05:44:26;;;;;;;7.13;1.70;;;;;;;10.61;100.00;99748.53;5033818;28;20061;-63
2022/09/16 05:46:53;;;;;;;9.85;2.40;;;;;;;10.63;100.00;99744.84;5028691;28;20067;-61
2022/09/16 05:49:22;;;;;;;11.63;2.15;;;;;;;10.66;100.00;99746.38;5043387;28;20053;-60
2022/09/16 05:51:50;;;;;;;7.45;2.35;;;;;;;10.74;100.00;99751.09;5053021;28;20052;-63
2022/09/16 05:54:17;;;;;;;7.75;1.70;;;;;;;10.75;100.00;99750.97;5044099;28;20048;-63
2022/09/16 05:56:45;;;;;;;8.77;1.85;;;;;;;10.72;100.00;99750.38;5058843;23;20057;-65
2022/09/16 05:59:13;;;;;;;8.90;2.92;;;;;;;10.71;100.00;99753.94;5048869;28;20061;-66
2022/09/16 06:01:40;;;;;;;11.85;2.88;;;;;;;10.76;100.00;99747.41;5051013;28;20055;-66
2022/09/16 06:04:10;;;;;;;6.38;1.75;;;;;;;10.84;100.00;99745.03;5028551;28;20075;-66
2022/09/16 06:06:42;;;;;;;7.38;1.80;;;;;;;10.81;100.00;99752.34;5015614;28;20034;-65
2022/09/16 06:09:14;;;;;;;7.20;2.05;;;;;;;10.79;100.00;99749.81;5035417;28;20110;-66
2022/09/16 06:11:43;;;;;;;8.82;1.85;;;;;;;10.81;100.00;99762.88;5036346;28;20056;-66
2022/09/16 06:14:11;;;;;;;9.60;2.40;;;;;;;10.88;100.00;99751.75;5020991;28;20053;-65
2022/09/16 06:16:39;;;;;;;5.68;2.10;;;;;;;10.88;100.00;99751.75;5039996;28;20049;-66
2022/09/16 06:19:09;;;;;;;5.88;1.88;;;;;;;10.88;100.00;99743.03;5037220;28;20065;-65
2022/09/16 06:21:37;;;;;;;7.90;2.10;;;;;;;11.08;100.00;99755.56;5036659;28;20519;-66
2022/09/16 06:24:07;;;;;;;7.65;1.67;;;;;;;11.09;100.00;99746.69;5012398;28;20057;-66
2022/09/16 06:26:37;;;;;;;11.40;2.70;;;;;;;11.11;100.00;99743.94;5028191;28;20054;-66
2022/09/16 06:29:05;;;;;;;5.45;2.03;;;;;;;11.13;99.56;99740.25;5049822;28;20068;-66
2022/09/16 06:31:33;;;;;;;10.38;2.40;;;;;;;11.03;100.00;99744.53;5031432;28;20053;-66
2022/09/16 06:34:00;;;;;;;9.02;2.60;;;;;;;11.03;100.00;99741.91;5028638;28;20068;-66
2022/09/16 06:36:29;;;;;;;8.40;3.00;;;;;;;11.03;100.00;99741.91;5040008;28;20131;-66
2022/09/16 06:38:56;;;;;;;8.85;2.47;;;;;;;11.06;100.00;99743.44;5036469;28;20056;-66
2022/09/16 06:41:24;;;;;;;12.25;2.20;;;;;;;11.07;100.00;99748.59;5038735;28;21848;-66
2022/09/16 06:43:51;;;;;;;10.82;2.10;;;;;;;11.08;100.00;99747.66;5031221;28;20062;-66
2022/09/16 06:46:24;;;;;;;7.78;2.92;;;;;;;11.18;99.13;99741.69;5038139;28;20083;-66
2022/09/16 06:48:55;;;;;;;6.10;1.95;;;;;;;11.22;98.58;99743.16;5029163;28;20059;-66
2022/09/16 06:51:28;;;;;;;4.50;1.97;;;;;;;11.21;98.59;99746.72;5022024;28;20052;-66
2022/09/16 06:54:03;;;;;;;8.10;2.25;;;;;;;11.19;98.53;99741.56;5026895;28;20480;-66
2022/09/16 06:56:30;;;;;;;6.93;1.97;;;;;;;11.25;98.75;99735.81;5042033;28;20120;-66
2022/09/16 06:58:57;;;;;;;6.15;1.67;;;;;;;11.27;98.47;99741.00;5037322;28;20067;-65
2022/09/16 07:01:27;;;;;;;10.13;2.60;;;;;;;11.27;97.66;99739.19;5022680;28;20052;-66
2022/09/16 07:03:56;;;;;;;7.40;2.25;;;;;;;11.30;97.67;99749.50;5023781;28;20060;-66
2022/09/16 07:06:27;;;;;;;6.13;1.67;;;;;;;11.48;96.47;99747.25;5034572;28;20126;-66
2022/09/16 07:09:14;;;;;;;4.88;1.80;;;;;;;11.53;96.17;99744.28;5023016;28;20068;-66
2022/09/16 07:11:41;;;;;;;7.45;1.92;;;;;;;11.59;95.28;99755.19;5037942;28;20405;-66
2022/09/16 07:14:08;;;;;;;5.07;1.58;;;;;;;11.62;94.91;99765.50;5031211;28;20045;-66
2022/09/16 07:16:35;;;;;;;6.60;1.63;;;;;;;11.70;94.07;99758.78;5027094;28;20048;-65
2022/09/16 07:19:03;;;;;;;7.07;1.88;;;;;;;11.68;94.20;99765.97;5044266;28;20053;-66
2022/09/16 07:21:31;;;;;;;7.63;1.73;;;;;;;11.65;94.13;99764.41;5037545;28;20052;-66
2022/09/16 07:23:59;;;;;;;7.57;1.65;;;;;;;11.69;94.37;99763.22;5043248;28;20068;-66
2022/09/16 07:26:32;;;;;;;8.77;1.88;;;;;;;11.68;92.75;99758.06;5052189;28;20053;-66
2022/09/16 07:29:01;;;;;;;6.10;1.58;;;;;;;11.69;93.59;99754.47;5042188;28;20052;-66
2022/09/16 07:31:30;;;;;;;4.28;1.23;;;;;;;11.73;93.53;99755.91;5053340;28;20144;-65
2022/09/16 07:34:00;;;;;;;9.50;1.65;;;;;;;11.82;91.25;99756.06;5048328;28;20378;-66
2022/09/16 07:36:42;;;;;;;7.75;1.63;;;;;;;11.83;91.74;99749.81;5030594;28;20063;-66
2022/09/16 07:39:11;;;;;;;3.30;1.27;;;;;;;11.87;91.91;99747.78;5031597;28;20047;-65
2022/09/16 07:41:41;;;;;;;5.22;1.10;;;;;;;11.94;91.46;99762.19;5047532;28;20051;-65
2022/09/16 07:44:11;;;;;;;2.78;1.20;;;;;;;12.07;92.03;99759.44;5048731;28;20057;-65
2022/09/16 07:46:38;;;;;;;6.13;1.58;;;;;;;12.19;90.70;99762.88;5026114;28;20064;-65
2022/09/16 07:49:07;;;;;;;6.47;1.42;;;;;;;12.26;90.23;99756.16;5025928;28;20336;-65
2022/09/16 07:51:34;;;;;;;8.98;2.65;;;;;;;12.35;88.88;99766.00;5045225;28;20059;-65
2022/09/16 07:54:07;;;;;;;5.13;1.48;;;;;;;12.35;88.23;99758.06;5048291;28;20060;-65
2022/09/16 07:56:36;;;;;;;8.43;1.30;;;;;;;12.37;88.54;99754.34;5048566;28;20053;-66
2022/09/16 07:59:05;;;;;;;5.28;1.08;;;;;;;12.43;87.50;99755.66;5045923;28;20037;-65
2022/09/16 08:01:33;;;;;;;8.15;2.03;;;;;;;12.52;87.84;99764.63;5043068;28;20393;-65
2022/09/16 08:04:03;;;;;;;6.65;1.08;;;;;;;12.76;86.40;99764.44;5027252;28;20045;-65
2022/09/16 08:06:31;;;;;;;7.60;1.35;;;;;;;12.69;85.83;99766.72;5046055;28;20476;-65
2022/09/16 08:08:59;;;;;;;5.18;1.20;;;;;;;12.70;85.43;99763.16;5030356;28;20592;-66
2022/09/16 08:11:47;;;;;;;8.20;1.30;;;;;;;12.70;84.57;99773.72;5042173;28;20068;-65
2022/09/16 08:14:14;;;;;;;5.57;1.20;;;;;;;12.72;84.67;99768.28;5043524;28;20139;-65
2022/09/16 08:16:41;;;;;;;5.28;1.60;;;;;;;12.87;83.69;99773.16;5025592;28;20394;-64
2022/09/16 08:19:08;;;;;;;9.27;1.08;;;;;;;12.89;83.58;99773.88;5041932;28;20405;-65
2022/09/16 08:21:35;;;;;;;10.15;1.63;;;;;;;12.88;83.36;99782.78;5037739;28;20472;-65
2022/09/16 08:24:03;;;;;;;6.10;1.38;;;;;;;12.86;83.15;99782.03;5039549;28;20068;-65
2022/09/16 08:26:37;;;;;;;4.63;0.98;;;;;;;12.92;83.14;99778.94;5025910;28;20176;-65
2022/09/16 08:29:04;;;;;;;5.70;0.93;;;;;;;12.96;83.38;99774.19;5044486;28;20056;-65
2022/09/16 08:31:36;;;;;;;7.50;1.30;;;;;;;13.00;82.88;99786.19;5038962;28;20068;-65
2022/09/16 08:34:06;;;;;;;10.88;1.30;;;;;;;13.04;81.44;99757.72;5045817;28;20049;-65
2022/09/16 08:36:33;;;;;;;11.00;1.70;;;;;;;13.11;80.88;99796.75;5029446;28;20521;-65
2022/09/16 08:39:01;;;;;;;9.35;1.50;;;;;;;13.08;80.88;99767.06;5006822;28;20058;-65
2022/09/16 08:42:00;;;;;;;8.60;1.50;;;;;;;13.13;80.99;99764.88;5029273;28;20053;-65
2022/09/16 08:44:43;;;;;;;5.10;1.00;;;;;;;13.22;81.01;99766.78;5024916;28;20068;-65
2022/09/16 08:47:41;;;;;;;6.38;1.10;;;;;;;13.34;80.50;99763.13;5025821;28;20049;-64
2022/09/16 08:50:17;;;;;;;5.75;1.40;;;;;;;13.30;80.40;99753.78;5041372;28;20071;-65
2022/09/16 08:52:45;;;;;;;7.32;1.10;;;;;;;13.36;80.40;99777.03;5046514;28;20064;-64
2022/09/16 08:55:19;;;;;;;4.68;1.15;;;;;;;13.36;78.34;99769.13;5044465;28;20045;-65
2022/09/16 08:57:54;;;;;;;12.50;1.40;;;;;;;13.46;79.12;99769.16;5015792;28;20045;-65
2022/09/16 09:00:21;;;;;;;12.10;2.35;;;;;;;13.48;76.76;99754.03;5021944;28;20071;-65
2022/09/16 09:03:12;;;;;;;8.68;1.27;;;;;;;13.55;76.91;99759.63;5044021;28;20052;-67
2022/09/16 09:05:53;;;;;;;6.30;1.33;;;;;;;13.64;76.46;99758.84;5043349;28;20055;-65
2022/09/16 09:08:47;;;;;;;3.80;0.90;;;;;;;13.67;76.54;99758.59;5038549;28;20057;-65
2022/09/16 09:11:39;;;;;;;5.40;1.08;;;;;;;13.73;75.78;99759.84;5005983;28;20053;-65
2022/09/16 09:14:32;;;;;;;11.60;1.38;;;;;;;13.80;75.12;99755.72;5016442;28;20397;-65
2022/09/16 09:17:34;;;;;;;7.28;1.27;;;;;;;13.77;74.97;99758.63;5022683;28;20041;-66
2022/09/16 09:20:37;;;;;;;7.47;1.15;;;;;;;13.81;73.98;99747.66;5045964;28;20532;-66
2022/09/16 09:23:26;;;;;;;4.25;1.27;;;;;;;13.85;74.61;99756.16;5042263;28;20052;-64
2022/09/16 09:26:12;;;;;;;4.30;1.08;;;;;;;13.92;72.29;99742.28;5023574;28;20048;-64
2022/09/16 09:29:00;;;;;;;4.78;1.20;;;;;;;14.19;71.96;99748.78;5043353;28;20300;-65
2022/09/16 09:31:46;;;;;;;5.35;1.08;;;;;;;14.24;71.04;99746.56;5046914;28;20061;-65
2022/09/16 09:34:19;;;;;;;13.07;1.70;;;;;;;14.40;69.26;99746.03;5018500;28;20048;-64
2022/09/16 09:36:57;;;;;;;8.02;1.27;;;;;;;14.43;69.11;99735.19;5045663;28;20053;-66
2022/09/16 09:39:45;;;;;;;8.50;1.65;;;;;;;14.53;66.92;99740.50;5027094;28;20059;-64
2022/09/16 09:42:20;;;;;;;28.08;2.35;;;;;;;14.52;66.65;99760.88;5044081;28;20060;-64
2022/09/16 09:44:54;;;;;;;6.82;1.30;;;;;;;14.48;66.87;99732.13;5041818;28;20523;-65
2022/09/16 09:47:46;;;;;;;11.15;2.42;;;;;;;14.43;67.11;99735.19;5006911;28;20068;-65
2022/09/16 09:50:15;;;;;;;;;;;;;;;14.46;67.16;99749.97;5023446;28;20131;-65
2022/09/16 09:53:09;;;;;;;14.60;1.55;;;;;;;14.42;63.59;99733.50;5028464;28;19928;-65
2022/09/16 09:55:38;;;;;;;18.13;1.73;;;;;;;14.51;62.62;99737.19;5041183;28;20059;-64
2022/09/16 09:58:16;;;;;;;12.50;1.83;;;;;;;14.53;63.44;99737.88;5027770;28;20544;-65
2022/09/16 10:00:43;;;;;;;10.52;1.85;;;;;;;14.59;63.82;99742.59;5024756;28;20529;-65
2022/09/16 10:03:13;;;;;;;8.35;1.65;;;;;;;14.50;62.13;99725.75;5024942;28;20249;-65
2022/09/16 10:05:41;;;;;;;8.82;1.48;;;;;;;14.43;62.99;99728.06;5028098;28;20048;-65
2022/09/16 10:08:16;;;;;;;13.50;2.00;;;;;;;14.50;62.29;99724.88;5017952;28;20041;-65
2022/09/16 10:10:49;;;;;;;9.98;1.63;;;;;;;14.46;60.99;99726.13;5023375;28;20060;-65
2022/09/16 10:13:18;;;;;;;7.25;1.60;;;;;;;14.44;62.41;99727.09;5024885;28;20044;-65
2022/09/16 10:15:45;;;;;;;9.30;1.85;;;;;;;14.46;59.95;99732.25;5019914;28;20117;-65
2022/09/16 10:18:27;;;;;;;8.32;1.92;;;;;;;14.67;59.98;99722.41;5041169;28;20041;-65
2022/09/16 10:21:12;;;;;;;6.75;1.60;;;;;;;14.93;59.27;99714.75;5026728;28;20060;-64
2022/09/16 10:23:39;;;;;;;12.73;1.75;;;;;;;15.13;59.28;99702.31;5022752;28;20049;-65
2022/09/16 10:26:20;;;;;;;22.38;2.22;;;;;;;15.38;58.62;99711.47;5018029;28;20534;-65
2022/09/16 10:28:54;;;;;;;4.53;1.15;;;;;;;15.42;57.13;99725.28;5036734;28;20085;-65
2022/09/16 10:31:23;;;;;;;13.07;2.28;;;;;;;15.32;55.72;99722.66;5028798;28;20408;-65
2022/09/16 10:33:51;;;;;;;16.85;2.38;;;;;;;15.17;55.08;99721.41;5037870;28;20049;-66
2022/09/16 10:36:21;;;;;;;16.08;1.60;;;;;;;15.12;55.67;99728.94;5019192;28;20401;-65
2022/09/16 10:38:52;;;;;;;10.27;1.67;;;;;;;15.11;55.80;99725.47;5022038;28;20059;-65
2022/09/16 10:41:25;;;;;;;11.88;1.52;;;;;;;15.16;56.15;99730.34;5010784;28;20053;-66
2022/09/16 10:43:54;;;;;;;31.73;2.65;;;;;;;15.22;55.77;99716.53;5040177;28;20536;-65
2022/09/16 10:46:21;;;;;;;12.35;1.73;;;;;;;15.35;55.92;99719.69;5018610;28;20060;-66
2022/09/16 10:48:49;;;;;;;10.05;2.42;;;;;;;15.45;54.75;99704.63;5025994;28;20056;-66
2022/09/16 10:51:27;;;;;;;5.43;1.00;;;;;;;15.49;53.96;99731.69;5034873;28;20499;-65
2022/09/16 10:53:59;;;;;;;9.32;1.40;;;;;;;15.54;53.84;99710.03;5039350;28;20492;-65
2022/09/16 10:56:46;;;;;;;7.20;1.25;;;;;;;15.63;53.92;99717.97;5025005;28;20148;-67
2022/09/16 10:59:14;;;;;;;10.00;1.67;;;;;;;15.72;53.82;99713.63;5040270;28;20063;-66
2022/09/16 11:02:00;;;;;;;8.15;1.40;;;;;;;15.85;52.15;99707.97;5013740;28;20045;-67
2022/09/16 11:04:50;;;;;;;13.98;1.33;;;;;;;15.91;50.60;99710.06;5036838;28;20053;-66
2022/09/16 11:07:37;;;;;;;13.15;2.20;;;;;;;16.09;51.64;99700.31;5036540;28;20053;-67
2022/09/16 11:10:09;;;;;;;7.07;1.40;;;;;;;16.37;51.58;99703.78;5025444;28;20517;-66
2022/09/16 11:13:08;;;;;;;10.13;1.63;;;;;;;16.58;51.25;99713.31;5042554;28;20258;-67
2022/09/16 11:15:56;;;;;;;24.67;1.58;;;;;;;16.49;51.78;99703.56;5045855;28;20063;-65
2022/09/16 11:18:38;;;;;;;13.90;2.55;;;;;;;16.24;51.24;99705.13;5041717;28;20057;-65
2022/09/16 11:21:17;;;;;;;13.63;1.23;;;;;;;16.02;51.05;99719.63;5017391;28;20116;-65
2022/09/16 11:23:56;;;;;;;11.43;1.50;;;;;;;15.94;51.50;99704.47;5016511;28;20057;-64
2022/09/16 11:26:29;;;;;;;12.82;1.55;;;;;;;15.91;50.49;99708.25;5040641;28;20065;-67
2022/09/16 11:29:20;;;;;;;10.00;1.40;;;;;;;15.84;50.58;99712.44;5039155;28;20049;-64
2022/09/16 11:32:03;;;;;;;8.02;1.00;;;;;;;15.87;49.99;99706.84;5029764;28;20053;-65
2022/09/16 11:34:30;;;;;;;11.93;1.50;;;;;;;15.95;49.97;99714.94;5039853;28;20045;-64
2022/09/16 11:37:23;;;;;;;6.55;1.10;;;;;;;16.07;49.91;99696.13;5022879;28;20472;-66
2022/09/16 11:40:17;;;;;;;17.75;1.70;;;;;;;16.05;50.67;99698.94;5042148;28;20080;-66
2022/09/16 11:42:57;;;;;;;8.55;1.30;;;;;;;16.06;50.83;99697.97;5026979;28;20048;-65
2022/09/16 11:45:41;;;;;;;7.57;1.20;;;;;;;16.16;50.33;99698.72;5046507;28;20143;-64
2022/09/16 11:48:43;;;;;;;8.00;1.27;;;;;;;16.26;49.76;99697.88;5022519;28;20147;-65
2022/09/16 11:51:34;;;;;;;10.13;1.65;;;;;;;16.55;48.10;99700.31;5041182;28;20059;-66
2022/09/16 11:54:11;;;;;;;7.68;0.95;;;;;;;16.92;47.16;99694.84;5043126;28;20049;-67
2022/09/16 11:56:43;;;;;;;8.70;1.58;;;;;;;16.87;46.75;99697.97;5026946;28;20045;-66
2022/09/16 11:59:25;;;;;;;10.52;1.40;;;;;;;16.65;47.74;99695.75;5020501;28;20045;-66
2022/09/16 12:01:56;;;;;;;10.07;1.40;;;;;;;16.59;48.00;99680.41;5024709;28;20060;-67